createdAt,value
2024-01-05T00:01:00.878Z,1.67
2024-01-05T00:03:34.282Z,1.70
2024-01-05T00:06:51.100Z,2.13
2024-01-05T00:09:18.274Z,1.70
2024-01-05T00:11:45.146Z,1.50
2024-01-05T00:14:18.906Z,1.60
2024-01-05T00:16:45.708Z,1.97
2024-01-05T00:19:19.075Z,1.77
2024-01-05T00:21:45.950Z,2.73
2024-01-05T00:24:19.204Z,2.03
2024-01-05T00:26:48.904Z,1.30
2024-01-05T00:29:28.897Z,1.60
2024-01-05T00:31:55.743Z,1.20
2024-01-05T00:34:22.841Z,1.50
2024-01-05T00:36:56.189Z,1.70
2024-01-05T00:39:30.208Z,1.83
2024-01-05T00:41:57.293Z,1.93
2024-01-05T00:44:31.054Z,1.13
2024-01-05T00:46:58.156Z,1.90
2024-01-05T00:49:32.143Z,1.80
2024-01-05T00:52:08.229Z,2.00
2024-01-05T00:54:42.278Z,1.70
2024-01-05T00:57:15.937Z,2.27
2024-01-05T00:59:48.981Z,1.77
2024-01-05T01:02:15.799Z,1.80
2024-01-05T01:07:43.931Z,1.63
2024-01-05T01:10:18.287Z,1.80
2024-01-05T01:12:51.956Z,1.73
2024-01-05T01:15:19.130Z,2.03
2024-01-05T01:17:46.537Z,1.20
2024-01-05T01:20:19.944Z,2.10
2024-01-05T01:22:46.793Z,2.57
2024-01-05T01:25:19.959Z,1.87
2024-01-05T01:27:52.980Z,2.23
2024-01-05T01:30:19.868Z,2.57
2024-01-05T01:32:53.085Z,1.93
2024-01-05T01:35:20.053Z,1.60
2024-01-05T01:37:52.974Z,1.50
2024-01-05T01:40:20.282Z,2.33
2024-01-05T01:42:47.581Z,1.57
2024-01-05T01:45:21.289Z,1.93
2024-01-05T01:47:50.670Z,1.60
2024-01-05T01:53:24.222Z,1.00
2024-01-05T01:55:58.967Z,1.80
2024-01-05T01:58:26.667Z,1.23
2024-01-05T02:01:00.327Z,1.40
2024-01-05T02:03:27.411Z,1.77
2024-01-05T02:06:33.068Z,1.80
2024-01-05T02:09:13.312Z,0.97
2024-01-05T02:11:47.248Z,1.40
2024-01-05T02:17:50.253Z,1.50
2024-01-05T02:20:17.394Z,1.50
2024-01-05T02:23:01.006Z,1.63
2024-01-05T02:25:27.790Z,2.20
2024-01-05T02:27:55.153Z,1.70
2024-01-05T02:30:29.106Z,1.10
2024-01-05T02:33:02.412Z,1.30
2024-01-05T02:35:29.252Z,1.60
2024-01-05T02:37:56.130Z,1.87
2024-01-05T02:40:29.284Z,1.80
2024-01-05T02:42:56.370Z,1.13
2024-01-05T02:45:23.389Z,1.70
2024-01-05T02:50:51.062Z,1.93
2024-01-05T02:53:24.035Z,1.87
2024-01-05T02:55:50.855Z,1.30
2024-01-05T02:58:17.694Z,1.70
2024-01-05T03:00:51.167Z,2.70
2024-01-05T03:03:18.987Z,1.47
2024-01-05T03:06:09.062Z,1.02
2024-01-05T03:08:42.055Z,1.13
2024-01-05T03:11:08.871Z,1.77
2024-01-05T03:13:35.693Z,1.43
2024-01-05T03:16:09.058Z,2.03
2024-01-05T03:18:35.940Z,1.33
2024-01-05T03:21:10.141Z,1.57
2024-01-05T03:23:46.051Z,1.80
2024-01-05T03:26:19.063Z,1.23
2024-01-05T03:28:45.852Z,1.10
2024-01-05T03:34:17.180Z,1.67
2024-01-05T03:37:06.088Z,0.77
2024-01-05T03:39:39.173Z,1.30
2024-01-05T03:42:06.336Z,1.80
2024-01-05T03:44:33.242Z,1.10
2024-01-05T03:47:07.088Z,2.00
2024-01-05T03:49:34.005Z,1.77
2024-01-05T03:52:01.170Z,1.63
2024-01-05T03:54:36.110Z,2.13
2024-01-05T03:57:10.265Z,1.00
2024-01-05T03:59:44.081Z,1.30
2024-01-05T04:02:10.866Z,1.70
2024-01-05T04:04:44.281Z,1.80
2024-01-05T04:07:17.409Z,1.50
2024-01-05T04:09:51.194Z,1.87
2024-01-05T04:12:25.132Z,2.03
2024-01-05T04:14:58.144Z,1.47
2024-01-05T04:20:26.135Z,1.43
2024-01-05T04:25:59.100Z,1.73
2024-01-05T04:28:32.129Z,2.57
2024-01-05T04:30:59.059Z,1.93
2024-01-05T04:37:20.139Z,1.87
2024-01-05T04:39:53.143Z,2.03
2024-01-05T04:42:20.002Z,1.63
2024-01-05T04:44:46.885Z,2.50
2024-01-05T04:47:20.165Z,1.70
2024-01-05T04:49:47.092Z,1.63
2024-01-05T04:52:20.149Z,1.00
2024-01-05T04:54:46.951Z,1.07
2024-01-05T04:57:20.213Z,2.40
2024-01-05T04:59:47.342Z,1.97
2024-01-05T05:02:14.225Z,1.33
2024-01-05T05:04:48.792Z,1.87
2024-01-05T05:10:30.158Z,1.53
2024-01-05T05:13:15.180Z,2.23
2024-01-05T05:15:49.176Z,2.10
2024-01-05T05:18:16.206Z,1.70
2024-01-05T05:20:49.168Z,1.50
2024-01-05T05:23:15.964Z,2.83
2024-01-05T05:25:49.175Z,2.03
2024-01-05T05:28:22.669Z,2.47
2024-01-05T05:30:56.264Z,2.30
2024-01-05T05:33:23.347Z,1.30
2024-01-05T05:35:50.360Z,0.90
2024-01-05T05:38:24.190Z,1.47
2024-01-05T05:40:57.217Z,1.77
2024-01-05T05:43:31.561Z,1.43
2024-01-05T05:46:07.846Z,1.73
2024-01-05T05:48:41.338Z,1.60
2024-01-05T05:51:08.714Z,1.50
2024-01-05T05:53:45.216Z,1.30
2024-01-05T05:56:12.036Z,2.37
2024-01-05T05:58:45.469Z,1.37
2024-01-05T06:01:14.406Z,1.77
2024-01-05T06:03:41.881Z,1.30
2024-01-05T06:06:26.245Z,1.20
2024-01-05T06:09:00.435Z,2.00
2024-01-05T06:11:34.216Z,2.30
2024-01-05T06:14:01.039Z,1.97
2024-01-05T06:16:27.905Z,1.40
2024-01-05T06:21:55.223Z,1.07
2024-01-05T06:24:28.257Z,1.90
2024-01-05T06:26:55.199Z,2.10
2024-01-05T06:29:23.150Z,2.57
2024-01-05T06:34:51.293Z,1.60
2024-01-05T06:37:18.100Z,1.97
2024-01-05T06:39:44.919Z,1.03
2024-01-05T06:42:18.259Z,1.20
2024-01-05T06:44:45.043Z,1.83
2024-01-05T06:47:11.877Z,1.20
2024-01-05T06:49:45.393Z,1.60
2024-01-05T06:52:24.268Z,1.53
2024-01-05T06:54:51.064Z,1.60
2024-01-05T06:57:46.541Z,1.40
2024-01-05T07:00:14.107Z,2.30
2024-01-05T07:02:48.289Z,1.10
2024-01-05T07:05:24.729Z,1.67
2024-01-05T07:08:11.546Z,1.70
2024-01-05T07:10:45.576Z,1.60
2024-01-05T07:13:12.403Z,1.80
2024-01-05T07:15:39.231Z,1.47
2024-01-05T07:18:13.417Z,1.20
2024-01-05T07:20:55.569Z,1.40
2024-01-05T07:23:29.285Z,1.17
2024-01-05T07:25:56.085Z,1.80
2024-01-05T07:28:29.278Z,1.40
2024-01-05T07:30:56.207Z,1.57
2024-01-05T07:33:47.332Z,1.97
2024-01-05T07:36:14.292Z,1.43
2024-01-05T07:38:47.294Z,1.33
2024-01-05T07:41:24.279Z,1.20
2024-01-05T07:43:57.306Z,1.30
2024-01-05T07:46:29.469Z,1.30
2024-01-05T07:49:06.360Z,1.50
2024-01-05T07:51:57.666Z,1.03
2024-01-05T07:54:24.808Z,1.23
2024-01-05T07:56:51.988Z,1.30
2024-01-05T07:59:25.595Z,1.27
2024-01-05T08:01:55.764Z,1.20
2024-01-05T08:04:22.729Z,1.53
2024-01-05T08:07:01.463Z,1.23
2024-01-05T08:09:41.785Z,1.60
2024-01-05T08:12:18.076Z,1.20
2024-01-05T08:20:49.326Z,1.47
2024-01-05T08:23:22.608Z,1.20
2024-01-05T08:25:49.448Z,1.20
2024-01-05T08:28:16.742Z,1.70
2024-01-05T08:30:51.764Z,0.90
2024-01-05T08:33:26.428Z,1.30
2024-01-05T08:35:53.432Z,1.27
2024-01-05T08:38:26.336Z,1.43
2024-01-05T08:40:53.958Z,1.70
2024-01-05T08:43:21.021Z,1.17
2024-01-05T08:45:54.343Z,1.53
2024-01-05T08:48:56.424Z,1.07
2024-01-05T08:51:23.456Z,1.67
2024-01-05T08:53:50.612Z,1.30
2024-01-05T08:56:24.397Z,0.87
2024-01-05T08:58:52.456Z,1.30
2024-01-05T09:01:19.358Z,1.50
2024-01-05T09:03:52.570Z,1.47
2024-01-05T09:06:19.620Z,1.10
2024-01-05T09:09:07.062Z,1.60
2024-01-05T09:11:43.645Z,0.97
2024-01-05T09:14:10.716Z,2.60
2024-01-05T09:16:37.949Z,1.23
2024-01-05T09:19:11.430Z,0.70
2024-01-05T09:21:38.740Z,0.70
2024-01-05T09:24:30.740Z,0.90
2024-01-05T09:27:05.265Z,0.97
2024-01-05T09:29:40.414Z,1.00
2024-01-05T09:32:07.832Z,0.90
2024-01-05T09:34:34.895Z,0.90
2024-01-05T09:37:08.410Z,0.70
2024-01-05T09:39:41.463Z,1.20
2024-01-05T09:42:09.659Z,0.87
2024-01-05T09:44:37.297Z,1.13
2024-01-05T09:47:11.672Z,2.93
2024-01-05T09:49:41.683Z,0.70
2024-01-05T09:52:11.141Z,1.13
2024-01-05T09:54:44.733Z,0.90
2024-01-05T09:57:17.970Z,0.60
2024-01-05T09:59:55.761Z,0.60
2024-01-05T10:03:00.684Z,0.63
2024-01-05T10:05:36.842Z,0.50
2024-01-05T10:08:12.074Z,0.57
2024-01-05T10:11:10.892Z,0.50
2024-01-05T10:13:38.529Z,0.50
2024-01-05T10:16:06.388Z,0.40
2024-01-05T10:18:41.697Z,0.90
2024-01-05T10:21:12.081Z,0.60
2024-01-05T10:23:50.702Z,0.50
2024-01-05T10:26:21.385Z,1.30
2024-01-05T10:28:56.688Z,0.50
2024-01-05T10:31:31.412Z,0.50
2024-01-05T10:33:58.812Z,0.70
2024-01-05T10:36:28.443Z,0.37
2024-01-05T10:41:49.765Z,0.60
2024-01-05T10:44:24.726Z,0.70
2024-01-05T10:46:53.162Z,0.50
2024-01-05T10:49:30.327Z,0.60
2024-01-05T10:52:03.482Z,0.50
2024-01-05T10:54:32.160Z,0.70
2024-01-05T10:57:00.269Z,0.53
2024-01-05T10:59:33.733Z,0.43
2024-01-05T11:02:07.620Z,0.50
2024-01-05T11:04:35.484Z,0.70
2024-01-05T11:07:09.570Z,0.63
2024-01-05T11:10:26.554Z,0.53
2024-01-05T11:13:25.548Z,0.60
2024-01-05T11:16:35.092Z,0.50
2024-01-05T11:19:37.583Z,0.40
2024-01-05T11:22:10.288Z,1.37
2024-01-05T11:24:45.553Z,0.57
2024-01-05T11:27:34.465Z,0.70
2024-01-05T11:30:09.012Z,1.33
2024-01-05T11:32:53.589Z,0.53
2024-01-05T11:35:42.319Z,0.80
2024-01-05T11:38:36.522Z,0.40
2024-01-05T11:41:17.189Z,0.50
2024-01-05T11:46:54.308Z,0.50
2024-01-05T11:52:37.183Z,0.60
2024-01-05T11:55:18.670Z,0.70
2024-01-05T11:57:52.788Z,0.60
2024-01-05T12:00:26.606Z,0.77
2024-01-05T12:03:01.793Z,0.83
2024-01-05T12:05:35.842Z,0.63
2024-01-05T12:08:26.795Z,0.73
2024-01-05T12:11:01.633Z,0.50
2024-01-05T12:13:28.897Z,0.70
2024-01-05T12:16:03.559Z,0.70
2024-01-05T12:18:37.691Z,0.70
2024-01-05T12:24:13.573Z,0.40
2024-01-05T12:26:47.587Z,0.70
2024-01-05T12:29:14.486Z,0.70
2024-01-05T12:31:49.602Z,0.70
2024-01-05T12:34:18.792Z,0.90
2024-01-05T12:36:52.686Z,0.80
2024-01-05T12:39:26.029Z,0.80
2024-01-05T12:42:00.676Z,1.00
2024-01-05T12:44:27.543Z,0.90
2024-01-05T12:46:55.687Z,0.60
2024-01-05T12:49:32.021Z,1.77
2024-01-05T12:51:59.339Z,0.70
2024-01-05T12:54:27.226Z,0.53
2024-01-05T12:57:01.874Z,0.50
2024-01-05T12:59:28.973Z,0.77
2024-01-05T13:02:10.957Z,0.77
2024-01-05T13:04:41.072Z,0.70
2024-01-05T13:07:28.841Z,0.90
2024-01-05T13:10:02.864Z,0.50
2024-01-05T13:12:30.037Z,0.50
2024-01-05T13:15:00.088Z,0.70
2024-01-05T13:17:33.697Z,0.60
2024-01-05T13:20:00.676Z,0.80
2024-01-05T13:25:22.953Z,0.70
2024-01-05T13:27:56.875Z,0.53
2024-01-05T13:30:24.085Z,0.60
2024-01-05T13:32:57.649Z,0.50
2024-01-05T13:35:24.863Z,0.73
2024-01-05T13:37:58.936Z,0.47
2024-01-05T13:40:26.493Z,0.80
2024-01-05T13:42:53.864Z,0.70
2024-01-05T13:45:27.925Z,0.60
2024-01-05T13:47:55.439Z,0.60
2024-01-05T13:50:28.635Z,0.77
2024-01-05T13:52:55.434Z,0.80
2024-01-05T13:55:28.776Z,1.27
2024-01-05T13:57:55.868Z,1.30
2024-01-05T14:00:23.128Z,1.20
2024-01-05T14:02:56.991Z,1.33
2024-01-05T14:05:24.794Z,1.07
2024-01-05T14:08:11.919Z,0.60
2024-01-05T14:10:45.911Z,0.73
2024-01-05T14:13:12.909Z,1.13
2024-01-05T14:15:46.743Z,0.80
2024-01-05T14:18:13.720Z,1.30
2024-01-05T14:20:47.677Z,0.80
2024-01-05T14:23:21.788Z,0.57
2024-01-05T14:25:56.906Z,0.70
2024-01-05T14:28:23.716Z,0.87
2024-01-05T14:30:56.992Z,0.60
2024-01-05T14:33:23.968Z,1.17
2024-01-05T14:36:04.977Z,0.73
2024-01-05T14:38:32.432Z,1.00
2024-01-05T14:41:05.944Z,0.80
2024-01-05T14:43:33.011Z,0.90
2024-01-05T14:46:07.020Z,0.60
2024-01-05T14:48:34.232Z,0.70
2024-01-05T14:51:07.990Z,0.77
2024-01-05T14:53:35.540Z,0.90
2024-01-05T14:56:04.164Z,1.27
2024-01-05T14:58:38.806Z,0.80
2024-01-05T15:01:07.113Z,0.80
2024-01-05T15:03:45.061Z,0.80
2024-01-05T15:06:12.446Z,1.20
2024-01-05T15:08:52.731Z,1.20
2024-01-05T15:11:26.297Z,1.10
2024-01-05T15:13:59.862Z,1.50
2024-01-05T15:16:34.986Z,0.70
2024-01-05T15:19:04.045Z,0.70
2024-01-05T15:21:37.770Z,0.70
2024-01-05T15:24:04.896Z,1.00
2024-01-05T15:26:42.053Z,1.13
2024-01-05T15:29:08.856Z,0.83
2024-01-05T15:31:41.831Z,1.10
2024-01-05T15:34:08.839Z,1.00
2024-01-05T15:36:49.095Z,1.03
2024-01-05T15:39:15.985Z,1.10
2024-01-05T15:41:44.732Z,0.77
2024-01-05T15:44:19.015Z,1.37
2024-01-05T15:46:45.816Z,0.50
2024-01-05T15:49:13.073Z,1.57
2024-01-05T15:51:47.052Z,1.10
2024-01-05T15:54:14.357Z,1.27
2024-01-05T15:56:47.997Z,1.73
2024-01-05T15:59:22.015Z,0.80
2024-01-05T16:01:50.351Z,1.10
2024-01-05T16:04:17.451Z,1.00
2024-01-05T16:06:51.067Z,1.37
2024-01-05T16:09:24.657Z,0.93
2024-01-05T16:11:57.763Z,1.70
2024-01-05T16:14:30.769Z,0.97
2024-01-05T16:16:58.539Z,0.90
2024-01-05T16:19:26.132Z,1.00
2024-01-05T16:21:59.833Z,1.30
2024-01-05T16:24:26.956Z,1.00
2024-01-05T16:27:00.045Z,1.00
2024-01-05T16:29:27.109Z,0.93
2024-01-05T16:32:01.040Z,1.00
2024-01-05T16:34:35.223Z,0.90
2024-01-05T16:37:02.396Z,0.80
2024-01-05T16:39:29.432Z,1.37
2024-01-05T16:42:03.069Z,1.07
2024-01-05T16:44:30.187Z,2.00
2024-01-05T16:47:04.026Z,1.23
2024-01-05T16:49:31.274Z,0.87
2024-01-05T16:52:04.793Z,1.20
2024-01-05T16:54:31.939Z,1.20
2024-01-05T16:56:59.497Z,1.80
2024-01-05T16:59:33.810Z,1.17
2024-01-05T17:02:00.910Z,1.50
2024-01-05T17:04:28.036Z,1.43
2024-01-05T17:07:02.064Z,1.27
2024-01-05T17:09:36.192Z,1.03
2024-01-05T17:12:10.253Z,1.20
2024-01-05T17:14:44.088Z,1.53
2024-01-05T17:17:11.136Z,1.53
2024-01-05T17:19:38.738Z,1.20
2024-01-05T17:22:12.076Z,1.70
2024-01-05T17:24:39.745Z,1.20
2024-01-05T17:27:07.802Z,1.20
2024-01-05T17:29:43.101Z,1.23
2024-01-05T17:32:10.323Z,1.40
2024-01-05T17:34:37.429Z,1.60
2024-01-05T17:37:17.358Z,1.47
2024-01-05T17:39:52.138Z,1.57
2024-01-05T17:42:26.177Z,1.27
2024-01-05T17:44:53.607Z,1.70
2024-01-05T17:47:27.017Z,1.63
2024-01-05T17:50:07.086Z,1.63
2024-01-05T17:52:41.108Z,1.03
2024-01-05T17:55:09.369Z,1.80
2024-01-05T17:57:37.387Z,1.43
2024-01-05T18:00:11.361Z,1.63
2024-01-05T18:02:38.878Z,1.10
2024-01-05T18:05:13.116Z,1.27
2024-01-05T18:08:00.889Z,1.20
2024-01-05T18:10:33.865Z,1.37
2024-01-05T18:13:00.900Z,1.13
2024-01-05T18:15:34.041Z,1.90
2024-01-05T18:18:01.210Z,2.00
2024-01-05T18:20:35.144Z,1.90
2024-01-05T18:23:09.141Z,2.20
2024-01-05T18:25:37.823Z,3.10
2024-01-05T18:28:24.118Z,2.03
2024-01-05T18:30:58.328Z,2.20
2024-01-05T18:33:32.307Z,1.50
2024-01-05T18:36:04.842Z,1.70
2024-01-05T18:38:51.136Z,1.90
2024-01-05T18:41:34.683Z,1.60
2024-01-05T18:44:09.187Z,2.20
2024-01-05T18:46:45.447Z,1.97
2024-01-05T18:49:20.289Z,2.17
2024-01-05T18:52:16.156Z,1.77
2024-01-05T18:54:43.634Z,1.77
2024-01-05T18:57:10.707Z,2.40
2024-01-05T18:59:45.160Z,2.03
2024-01-05T19:02:12.356Z,2.23
2024-01-05T19:04:40.720Z,1.50
2024-01-05T19:07:14.193Z,2.53
2024-01-05T19:09:47.864Z,2.00
2024-01-05T19:12:22.220Z,1.90
2024-01-05T19:14:49.199Z,1.73
2024-01-05T19:17:16.341Z,1.67
2024-01-05T19:19:49.999Z,1.80
2024-01-05T19:22:24.269Z,2.50
2024-01-05T19:24:57.918Z,2.40
2024-01-05T19:27:24.892Z,1.83
2024-01-05T19:29:51.688Z,2.17
2024-01-05T19:32:25.203Z,1.80
2024-01-05T19:34:55.156Z,2.13
2024-01-05T19:37:29.070Z,1.57
2024-01-05T19:39:56.117Z,2.63
2024-01-05T19:42:25.886Z,1.73
2024-01-05T19:44:59.247Z,1.90
2024-01-05T19:47:33.278Z,2.17
2024-01-05T19:50:08.308Z,2.90
2024-01-05T19:52:35.438Z,2.53
2024-01-05T19:55:10.984Z,2.37
2024-01-05T19:57:38.139Z,2.00
2024-01-05T20:00:18.281Z,3.03
2024-01-05T20:02:48.139Z,3.00
2024-01-05T20:05:15.302Z,2.23
2024-01-05T20:07:49.257Z,2.23
2024-01-05T20:10:28.866Z,3.00
2024-01-05T20:13:11.312Z,2.40
2024-01-05T20:15:47.508Z,2.73
2024-01-05T20:18:22.472Z,2.60
2024-01-05T20:20:49.645Z,2.97
2024-01-05T20:23:16.953Z,2.73
2024-01-05T20:25:50.274Z,2.40
2024-01-05T20:28:17.154Z,2.23
2024-01-05T20:30:45.059Z,2.67
2024-01-05T20:33:18.152Z,2.67
2024-01-05T20:35:45.079Z,2.37
2024-01-05T20:38:18.171Z,2.80
2024-01-05T20:40:46.318Z,3.70
2024-01-05T20:43:13.968Z,3.87
2024-01-05T20:45:49.370Z,3.50
2024-01-05T20:48:23.371Z,3.40
2024-01-05T20:50:50.718Z,3.03
2024-01-05T20:53:17.944Z,4.00
2024-01-05T20:55:51.025Z,3.70
2024-01-05T20:58:18.162Z,2.97
2024-01-05T21:00:45.399Z,3.27
2024-01-05T21:03:19.100Z,3.20
2024-01-05T21:05:46.705Z,3.70
2024-01-05T21:08:27.036Z,2.67
2024-01-05T21:11:00.728Z,3.47
2024-01-05T21:13:43.290Z,4.17
2024-01-05T21:16:10.210Z,4.30
2024-01-05T21:18:37.197Z,4.93
2024-01-05T21:21:13.068Z,3.97
2024-01-05T21:23:40.915Z,4.17
2024-01-05T21:26:07.764Z,4.07
2024-01-05T21:28:41.047Z,3.30
2024-01-05T21:31:08.376Z,2.97
2024-01-05T21:33:43.220Z,4.60
2024-01-05T21:36:12.388Z,2.90
2024-01-05T21:38:49.649Z,3.73
2024-01-05T21:41:24.070Z,3.57
2024-01-05T21:43:50.855Z,4.20
2024-01-05T21:46:24.082Z,3.27
2024-01-05T21:48:57.118Z,3.77
2024-01-05T21:51:24.264Z,3.30
2024-01-05T21:53:58.316Z,2.83
2024-01-05T21:56:32.360Z,5.40
2024-01-05T21:59:11.350Z,3.30
2024-01-05T22:01:41.071Z,3.90
2024-01-05T22:04:14.289Z,5.50
2024-01-05T22:06:41.615Z,4.07
2024-01-05T22:09:26.374Z,3.20
2024-01-05T22:11:53.420Z,4.17
2024-01-05T22:14:20.697Z,3.40
2024-01-05T22:16:56.372Z,4.40
2024-01-05T22:19:23.379Z,3.90
2024-01-05T22:21:57.176Z,5.60
2024-01-05T22:24:24.601Z,3.80
2024-01-05T22:26:51.661Z,3.67
2024-01-05T22:29:25.396Z,4.97
2024-01-05T22:31:52.939Z,4.10
2024-01-05T22:34:20.165Z,4.13
2024-01-05T22:36:53.189Z,3.77
2024-01-05T22:39:20.330Z,5.43
2024-01-05T22:41:54.434Z,4.60
2024-01-05T22:44:21.607Z,4.53
2024-01-05T22:46:55.251Z,4.87
2024-01-05T22:49:23.167Z,3.97
2024-01-05T22:52:14.387Z,4.07
2024-01-05T22:54:41.242Z,3.77
2024-01-05T22:57:16.168Z,5.23
2024-01-05T22:59:43.251Z,4.90
2024-01-05T23:02:21.381Z,5.17
2024-01-05T23:04:55.395Z,4.13
2024-01-05T23:07:22.820Z,5.50
2024-01-05T23:10:13.404Z,5.40
2024-01-05T23:12:41.816Z,4.73
2024-01-05T23:15:09.740Z,4.10
2024-01-05T23:17:43.425Z,6.90
2024-01-05T23:20:11.068Z,5.77
2024-01-05T23:22:44.422Z,5.70
2024-01-05T23:25:13.143Z,3.30
2024-01-05T23:27:40.285Z,5.33
2024-01-05T23:30:14.384Z,4.17
2024-01-05T23:32:41.615Z,5.23
2024-01-05T23:35:10.346Z,6.37
2024-01-05T23:37:44.166Z,5.70
2024-01-05T23:40:19.484Z,7.17
2024-01-05T23:45:53.513Z,7.57
2024-01-05T23:48:27.552Z,3.93
2024-01-05T23:50:54.737Z,4.70
2024-01-05T23:53:28.467Z,5.00
2024-01-05T23:56:01.192Z,4.93
2024-01-05T23:58:36.434Z,4.80
